Time;durP1;ratioP1;P1;durP2;ratioP2;P2;SDS_P1;SDS_P2;PMS_P1;PMS_P2;Temp;Humidity;BMP_temperature;BMP_pressure;BME280_temperature;BME280_humidity;BME280_pressure;Samples;Min_cycle;Max_cycle;Signal;HPM_P1;HPM_P2
2023/08/29 00:02:22;;;;;;;5.75;5.25;;;;;;;13.08;100.00;101248.47;5037152;28;20083;-67
2023/08/29 00:04:47;;;;;;;6.65;6.05;;;;;;;13.08;100.00;101235.16;5038572;28;20037;-67
2023/08/29 00:07:12;;;;;;;6.60;5.75;;;;;;;13.06;100.00;101233.66;5036744;28;20037;-67
2023/08/29 00:09:38;;;;;;;6.43;4.47;;;;;;;13.00;100.00;101237.84;5034658;28;20033;-67
2023/08/29 00:12:03;;;;;;;6.07;4.85;;;;;;;12.97;100.00;101232.88;5035953;28;20025;-67
2023/08/29 00:14:29;;;;;;;5.45;4.95;;;;;;;13.01;100.00;101236.88;5039605;28;20586;-67
2023/08/29 00:16:54;;;;;;;17.55;5.75;;;;;;;12.92;100.00;101232.56;5043889;28;20063;-67
2023/08/29 00:19:21;;;;;;;4.15;3.85;;;;;;;12.88;100.00;101226.75;5038142;28;20443;-67
2023/08/29 00:21:47;;;;;;;5.88;3.53;;;;;;;12.79;100.00;101217.16;5043828;28;20025;-67
2023/08/29 00:24:13;;;;;;;5.45;4.60;;;;;;;12.76;100.00;101224.69;5035398;28;20090;-67
2023/08/29 00:26:38;;;;;;;30.50;4.90;;;;;;;12.72;100.00;101221.50;5043352;28;20048;-67
2023/08/29 00:29:03;;;;;;;14.10;2.53;;;;;;;12.68;100.00;101218.38;5041241;28;20091;-67
2023/08/29 00:31:28;;;;;;;29.23;3.53;;;;;;;12.70;100.00;101203.03;5041145;28;20509;-67
2023/08/29 00:33:54;;;;;;;17.70;4.85;;;;;;;12.70;100.00;101210.22;5042149;28;20112;-66
2023/08/29 00:36:20;;;;;;;23.40;4.45;;;;;;;12.71;100.00;101202.03;5042357;28;20504;-67
2023/08/29 00:38:45;;;;;;;63.17;4.32;;;;;;;12.69;100.00;101205.88;5036775;28;20387;-67
2023/08/29 00:41:10;;;;;;;80.05;3.17;;;;;;;12.67;100.00;101206.06;5039885;28;20082;-67
2023/08/29 00:43:37;;;;;;;86.32;2.88;;;;;;;12.59;100.00;101211.44;5042266;28;20029;-67
2023/08/29 00:46:02;;;;;;;59.50;3.70;;;;;;;12.57;100.00;101212.63;5038740;28;20036;-67
2023/08/29 00:48:28;;;;;;;70.55;3.53;;;;;;;12.53;100.00;101212.16;5033782;28;20021;-67
2023/08/29 00:50:53;;;;;;;59.70;4.70;;;;;;;12.50;100.00;101207.16;5042168;28;20095;-67
2023/08/29 00:53:19;;;;;;;35.00;4.60;;;;;;;12.46;100.00;101202.38;5033784;28;20029;-68
2023/08/29 00:55:44;;;;;;;65.20;4.80;;;;;;;12.44;100.00;101197.22;5037141;28;20021;-67
2023/08/29 00:58:11;;;;;;;20.95;4.03;;;;;;;12.50;100.00;101199.19;5036619;28;20453;-67
2023/08/29 01:00:36;;;;;;;6.38;3.95;;;;;;;12.52;100.00;101205.16;5040240;28;20025;-67
2023/08/29 01:03:02;;;;;;;7.05;4.20;;;;;;;12.52;100.00;101205.16;5039902;28;20045;-67
2023/08/29 01:05:28;;;;;;;4.13;3.40;;;;;;;12.44;100.00;101197.22;5041422;28;20030;-67
2023/08/29 01:07:59;;;;;;;3.60;3.30;;;;;;;12.50;100.00;101201.84;5038255;28;20036;-67
2023/08/29 01:10:36;;;;;;;4.18;3.83;;;;;;;12.48;100.00;101201.19;5031976;28;20037;-67
2023/08/29 01:13:23;;;;;;;5.05;3.85;;;;;;;12.50;100.00;101207.16;5034519;28;20095;-67
2023/08/29 01:15:52;;;;;;;174.15;7.60;;;;;;;12.51;100.00;101206.16;5035469;28;20032;-67
2023/08/29 01:18:19;;;;;;;95.55;5.78;;;;;;;12.37;100.00;101206.88;5039536;28;20074;-67
2023/08/29 01:20:48;;;;;;;56.28;3.65;;;;;;;12.32;100.00;101211.91;5037547;28;20029;-67
2023/08/29 01:23:29;;;;;;;51.38;2.85;;;;;;;12.26;100.00;101213.41;5035947;28;20041;-67
2023/08/29 01:26:11;;;;;;;76.78;3.47;;;;;;;12.21;100.00;101213.13;5036570;28;20123;-67
2023/08/29 01:28:38;;;;;;;39.22;3.10;;;;;;;12.12;100.00;101214.13;5042692;28;20033;-67
2023/08/29 01:31:04;;;;;;;6.63;3.40;;;;;;;12.11;100.00;101201.81;5035939;28;20705;-67
2023/08/29 01:33:30;;;;;;;2.80;2.40;;;;;;;12.09;100.00;101204.66;5042134;28;20033;-67
2023/08/29 01:35:55;;;;;;;1.80;1.70;;;;;;;12.08;100.00;101210.97;5036618;28;20024;-67
2023/08/29 01:38:21;;;;;;;1.23;1.23;;;;;;;12.07;100.00;101214.63;5037669;28;20486;-67
2023/08/29 01:40:46;;;;;;;1.50;1.40;;;;;;;12.07;100.00;101206.66;5030883;28;20029;-67
2023/08/29 01:43:11;;;;;;;2.60;2.40;;;;;;;12.06;100.00;101212.97;5030756;28;20396;-67
2023/08/29 01:45:37;;;;;;;2.30;2.05;;;;;;;12.07;100.00;101205.81;5035991;28;20029;-67
2023/08/29 01:48:02;;;;;;;3.63;2.42;;;;;;;12.05;100.00;101211.31;5033235;28;20040;-67
2023/08/29 01:50:31;;;;;;;9.07;2.13;;;;;;;11.99;100.00;101213.84;5035207;28;20048;-67
2023/08/29 01:52:56;;;;;;;5.72;1.70;;;;;;;11.94;100.00;101214.34;5034093;28;20032;-67
2023/08/29 01:55:23;;;;;;;14.13;1.95;;;;;;;11.86;100.00;101211.72;5034215;28;20033;-67
2023/08/29 01:57:51;;;;;;;28.50;2.42;;;;;;;11.84;100.00;101220.84;5033088;28;20071;-67
2023/08/29 02:00:17;;;;;;;5.97;2.85;;;;;;;11.80;100.00;101220.34;5037361;28;20041;-67
2023/08/29 02:02:43;;;;;;;20.20;3.30;;;;;;;11.81;100.00;101219.34;5033793;28;20032;-67
2023/08/29 02:05:08;;;;;;;12.20;3.30;;;;;;;11.75;100.00;101234.16;5031769;28;20509;-67
2023/08/29 02:07:34;;;;;;;3.00;2.70;;;;;;;11.78;100.00;101225.03;5037228;28;20029;-67
2023/08/29 02:09:59;;;;;;;2.85;2.40;;;;;;;11.83;100.00;101221.84;5034984;28;20034;-67
2023/08/29 02:12:24;;;;;;;3.40;3.10;;;;;;;11.83;100.00;101221.84;5037930;28;20029;-67
2023/08/29 02:14:49;;;;;;;3.40;3.10;;;;;;;11.85;100.00;101218.03;5038116;28;20099;-67
2023/08/29 02:17:15;;;;;;;7.65;3.65;;;;;;;11.85;100.00;101217.19;5037641;28;20032;-67
2023/08/29 02:19:40;;;;;;;4.15;3.75;;;;;;;11.87;100.00;101220.53;5040034;28;20043;-67
2023/08/29 02:22:05;;;;;;;4.80;4.10;;;;;;;11.91;100.00;101222.69;5030638;28;20056;-67
2023/08/29 02:24:31;;;;;;;4.75;3.35;;;;;;;11.90;100.00;101228.19;5037222;28;20053;-67
2023/08/29 02:26:56;;;;;;;6.03;3.90;;;;;;;11.90;100.00;101225.53;5041171;28;20033;-67
2023/08/29 02:29:21;;;;;;;6.00;4.40;;;;;;;11.88;100.00;101228.34;5035736;28;20638;-67
2023/08/29 02:31:46;;;;;;;9.00;5.30;;;;;;;11.90;100.00;101237.00;5037062;28;20033;-67
2023/08/29 02:34:12;;;;;;;7.70;5.15;;;;;;;11.95;100.00;101239.16;5035208;28;20031;-66
2023/08/29 02:36:37;;;;;;;7.20;4.03;;;;;;;11.98;100.00;101244.94;5031117;28;20111;-67
2023/08/29 02:39:02;;;;;;;4.00;3.55;;;;;;;11.99;100.00;101243.13;5029516;28;20033;-67
2023/08/29 02:41:28;;;;;;;3.97;3.35;;;;;;;12.02;100.00;101246.28;5032913;28;20523;-66
2023/08/29 02:43:54;;;;;;;3.40;3.10;;;;;;;12.03;100.00;101249.75;5034503;28;20029;-67
2023/08/29 02:46:19;;;;;;;3.55;3.25;;;;;;;12.08;100.00;101258.91;5034550;28;20031;-67
2023/08/29 02:48:45;;;;;;;4.53;3.58;;;;;;;12.06;100.00;101252.91;5043940;28;20033;-67
2023/08/29 02:51:10;;;;;;;3.80;3.45;;;;;;;12.07;100.00;101253.75;5040840;28;20028;-67
2023/08/29 02:53:35;;;;;;;5.40;3.65;;;;;;;12.11;100.00;101249.72;5030280;28;20025;-67
2023/08/29 02:56:01;;;;;;;4.47;3.38;;;;;;;12.12;100.00;101247.91;5029985;28;20021;-67
2023/08/29 02:58:26;;;;;;;15.82;4.35;;;;;;;12.13;100.00;101252.22;5028595;28;20039;-67
2023/08/29 03:00:59;;;;;;;22.38;5.20;;;;;;;12.12;100.00;101245.25;5035822;28;20033;-67
2023/08/29 03:03:25;;;;;;;20.13;4.97;;;;;;;12.09;100.00;101247.25;5034659;28;20026;-67
2023/08/29 03:05:57;;;;;;;14.07;4.50;;;;;;;12.13;100.00;101249.56;5031314;28;20028;-66
2023/08/29 03:08:23;;;;;;;9.52;3.28;;;;;;;12.12;100.00;101258.56;5032735;28;20033;-67
2023/08/29 03:10:49;;;;;;;13.25;3.55;;;;;;;12.07;100.00;101259.91;5035175;28;20021;-67
2023/08/29 03:13:14;;;;;;;10.05;2.67;;;;;;;12.04;100.00;101254.09;5034325;28;20487;-66
2023/08/29 03:15:40;;;;;;;4.05;3.63;;;;;;;12.08;100.00;101253.56;5032807;28;20101;-67
2023/08/29 03:18:06;;;;;;;4.38;3.72;;;;;;;12.06;100.00;101247.59;5038040;28;20020;-67
2023/08/29 03:20:31;;;;;;;4.63;3.92;;;;;;;12.05;100.00;101250.41;5039173;28;20033;-67
2023/08/29 03:22:57;;;;;;;5.75;3.70;;;;;;;12.03;100.00;101250.59;5036325;28;20407;-67
2023/08/29 03:25:22;;;;;;;4.03;3.65;;;;;;;12.00;100.00;101239.47;5035551;28;20441;-67
2023/08/29 03:27:47;;;;;;;4.65;2.70;;;;;;;11.93;100.00;101239.31;5037042;28;20029;-67
2023/08/29 03:30:13;;;;;;;2.60;2.40;;;;;;;11.81;100.00;101245.97;5035654;28;20032;-66
2023/08/29 03:32:39;;;;;;;2.13;1.98;;;;;;;11.77;100.00;101245.44;5041349;28;20376;-67
2023/08/29 03:35:05;;;;;;;3.40;3.10;;;;;;;11.83;100.00;101245.81;5033437;28;20029;-66
2023/08/29 03:37:30;;;;;;;6.82;4.57;;;;;;;11.86;100.00;101230.34;5040971;28;20062;-66
2023/08/29 03:39:55;;;;;;;5.03;4.47;;;;;;;11.90;100.00;101222.84;5037324;28;20462;-65
2023/08/29 03:42:20;;;;;;;5.68;4.30;;;;;;;11.86;100.00;101225.03;5043947;28;20075;-67
2023/08/29 03:44:46;;;;;;;5.28;4.18;;;;;;;11.86;100.00;101226.88;5030305;28;20107;-67
2023/08/29 03:47:11;;;;;;;7.35;4.60;;;;;;;11.85;100.00;101222.50;5028327;28;20496;-67
2023/08/29 03:49:36;;;;;;;4.05;2.45;;;;;;;11.76;100.00;101227.00;5028513;28;20057;-67
2023/08/29 03:52:03;;;;;;;22.40;2.88;;;;;;;11.64;100.00;101223.03;5045533;28;20029;-66
2023/08/29 03:54:29;;;;;;;18.55;2.95;;;;;;;11.51;100.00;101214.72;5035341;28;20414;-66
2023/08/29 03:56:55;;;;;;;34.72;3.90;;;;;;;11.39;100.00;101217.72;5028028;28;20024;-67
2023/08/29 03:59:20;;;;;;;59.92;4.82;;;;;;;11.33;100.00;101212.25;5029863;28;20025;-66
2023/08/29 04:01:45;;;;;;;94.60;5.15;;;;;;;11.27;100.00;101200.41;5036601;28;20037;-66
2023/08/29 04:04:10;;;;;;;109.63;5.90;;;;;;;11.21;100.00;101200.25;5031727;28;20029;-66
2023/08/29 04:06:36;;;;;;;78.38;5.57;;;;;;;11.20;100.00;101211.88;5035501;28;20017;-66
2023/08/29 04:09:07;;;;;;;47.40;5.30;;;;;;;11.11;100.00;101203.91;5030780;28;20021;-67
2023/08/29 04:11:32;;;;;;;38.42;4.70;;;;;;;11.06;100.00;101200.94;5029866;28;20041;-67
2023/08/29 04:13:58;;;;;;;18.15;4.80;;;;;;;11.02;100.00;101201.44;5030987;28;20674;-67
2023/08/29 04:16:23;;;;;;;37.03;5.90;;;;;;;11.04;100.00;101202.09;5035405;28;20082;-66
2023/08/29 04:18:48;;;;;;;15.82;5.47;;;;;;;11.04;100.00;101199.44;5029459;28;20026;-67
2023/08/29 04:21:13;;;;;;;29.50;4.93;;;;;;;10.99;100.00;101194.63;5037198;28;20033;-66
2023/08/29 04:23:39;;;;;;;36.63;4.45;;;;;;;10.95;100.00;101189.78;5038943;28;20024;-66
2023/08/29 04:26:04;;;;;;;16.67;3.90;;;;;;;10.83;100.00;101190.09;5035777;28;20048;-66
2023/08/29 04:28:30;;;;;;;16.15;3.83;;;;;;;10.76;100.00;101189.09;5030766;28;20029;-66
2023/08/29 04:31:17;;;;;;;20.80;3.95;;;;;;;10.66;100.00;101188.38;5032536;28;20513;-66
2023/08/29 04:33:42;;;;;;;23.55;4.20;;;;;;;10.58;100.00;101185.72;5038127;28;20125;-66
2023/08/29 04:36:08;;;;;;;36.58;5.05;;;;;;;10.52;100.00;101192.53;5032846;28;20124;-66
2023/08/29 04:38:33;;;;;;;43.15;4.38;;;;;;;10.44;100.00;101189.00;5033309;28;20465;-66
2023/08/29 04:40:58;;;;;;;22.02;4.18;;;;;;;10.40;100.00;101193.78;5035159;28;20039;-66
2023/08/29 04:43:24;;;;;;;22.30;4.22;;;;;;;10.36;100.00;101189.78;5037078;28;20080;-66
2023/08/29 04:45:51;;;;;;;47.28;5.18;;;;;;;10.35;100.00;101193.44;5040018;28;20491;-66
2023/08/29 04:48:17;;;;;;;50.45;5.30;;;;;;;10.33;100.00;101187.47;5028087;28;20044;-66
2023/08/29 04:50:45;;;;;;;36.88;5.32;;;;;;;10.34;100.00;101183.81;5033535;28;20049;-66
2023/08/29 04:53:10;;;;;;;25.95;5.25;;;;;;;10.38;100.00;101185.16;5035958;28;20036;-66
2023/08/29 04:55:35;;;;;;;20.23;4.82;;;;;;;10.40;100.00;101179.69;5037498;28;20022;-67
2023/08/29 04:58:00;;;;;;;26.30;5.47;;;;;;;10.46;100.00;101185.22;5038839;28;20082;-66
2023/08/29 05:00:26;;;;;;;27.75;5.70;;;;;;;10.55;100.00;101186.06;5039065;28;20026;-66
2023/08/29 05:02:51;;;;;;;33.95;5.97;;;;;;;10.62;100.00;101184.41;5039302;28;20036;-66
2023/08/29 05:05:16;;;;;;;24.65;6.00;;;;;;;10.68;100.00;101178.44;5034277;28;20167;-66
2023/08/29 05:07:42;;;;;;;47.78;8.15;;;;;;;10.80;100.00;101181.63;5041770;28;20094;-66
2023/08/29 05:10:07;;;;;;;36.03;8.00;;;;;;;10.83;100.00;101176.81;5035986;28;20026;-66
2023/08/29 05:12:33;;;;;;;29.17;7.38;;;;;;;10.93;100.00;101178.47;5036602;28;20520;-66
2023/08/29 05:14:58;;;;;;;17.92;7.22;;;;;;;10.99;100.00;101188.47;5032198;28;20025;-66
2023/08/29 05:17:23;;;;;;;17.42;7.40;;;;;;;11.00;100.00;101188.31;5038540;28;20033;-66
2023/08/29 05:19:50;;;;;;;27.10;6.60;;;;;;;11.00;100.00;101195.44;5033011;28;20033;-66
2023/08/29 05:22:16;;;;;;;21.50;6.82;;;;;;;10.92;100.00;101192.75;5038876;28;20040;-66
2023/08/29 05:24:41;;;;;;;27.30;6.80;;;;;;;10.84;100.00;101188.28;5036206;28;20414;-66
2023/08/29 05:27:06;;;;;;;39.92;7.93;;;;;;;10.79;100.00;101177.31;5036962;28;20036;-66
2023/08/29 05:29:31;;;;;;;33.33;7.00;;;;;;;10.82;100.00;101191.09;5035384;28;20486;-66
2023/08/29 05:31:57;;;;;;;18.65;7.53;;;;;;;10.84;100.00;101186.44;5038296;28;20018;-66
2023/08/29 05:34:22;;;;;;;23.33;8.20;;;;;;;10.82;100.00;101193.75;5035718;28;20026;-66
2023/08/29 05:36:49;;;;;;;28.33;8.18;;;;;;;10.86;100.00;101197.75;5034839;28;20013;-66
2023/08/29 05:39:15;;;;;;;12.27;7.20;;;;;;;10.90;100.00;101186.78;5036188;28;20033;-66
2023/08/29 05:41:40;;;;;;;7.65;6.85;;;;;;;10.89;100.00;101185.13;5039575;28;20029;-66
2023/08/29 05:44:05;;;;;;;8.82;7.15;;;;;;;10.94;100.00;101190.78;5032484;28;20029;-66
2023/08/29 05:46:31;;;;;;;8.75;7.80;;;;;;;11.04;100.00;101197.59;5039459;28;20028;-66
2023/08/29 05:48:58;;;;;;;10.02;8.68;;;;;;;11.12;100.00;101189.63;5038146;28;20410;-66
2023/08/29 05:51:23;;;;;;;11.18;8.82;;;;;;;11.20;100.00;101190.63;5038689;28;20040;-66
2023/08/29 05:53:48;;;;;;;9.25;7.93;;;;;;;11.25;100.00;101178.50;5039966;28;20036;-66
2023/08/29 05:56:13;;;;;;;9.15;8.13;;;;;;;11.30;100.00;101183.34;5038056;28;20033;-66
2023/08/29 05:58:39;;;;;;;9.82;7.97;;;;;;;11.34;100.00;101182.81;5037492;28;20024;-66
2023/08/29 06:01:07;;;;;;;9.65;7.68;;;;;;;11.41;100.00;101191.78;5032774;28;20040;-66
2023/08/29 06:03:32;;;;;;;8.80;7.90;;;;;;;11.42;100.00;101190.78;5033735;28;20127;-66
2023/08/29 06:05:58;;;;;;;10.20;7.63;;;;;;;11.46;100.00;101185.97;5043478;28;20632;-66
2023/08/29 06:08:24;;;;;;;9.50;7.95;;;;;;;11.56;100.00;101183.94;5033836;28;20108;-66
2023/08/29 06:10:49;;;;;;;11.10;8.85;;;;;;;11.67;100.00;101182.78;5032693;28;20179;-66
2023/08/29 06:13:15;;;;;;;11.07;9.27;;;;;;;11.86;100.00;101182.44;5036913;28;20115;-67
2023/08/29 06:15:40;;;;;;;10.45;8.63;;;;;;;11.94;100.00;101181.59;5033720;28;20498;-66
2023/08/29 06:18:05;;;;;;;13.23;9.45;;;;;;;12.05;100.00;101194.53;5034537;28;20074;-66
2023/08/29 06:20:31;;;;;;;11.60;9.38;;;;;;;12.21;100.00;101186.50;5030469;28;20482;-66
2023/08/29 06:22:58;;;;;;;13.73;9.90;;;;;;;12.33;100.00;101190.41;5033011;28;20025;-66
2023/08/29 06:25:24;;;;;;;12.18;9.40;;;;;;;12.38;100.00;101195.22;5029982;28;20029;-66
2023/08/29 06:27:49;;;;;;;13.82;10.50;;;;;;;12.49;100.00;101189.53;5044149;28;20036;-66
2023/08/29 06:30:15;;;;;;;11.38;9.75;;;;;;;12.55;100.00;101194.16;5035210;28;20044;-66
2023/08/29 06:32:41;;;;;;;10.50;9.43;;;;;;;12.57;100.00;101197.47;5042093;28;20025;-67
2023/08/29 06:35:09;;;;;;;11.70;9.35;;;;;;;12.63;100.00;101201.25;5033591;28;20044;-67
2023/08/29 06:37:34;;;;;;;11.75;9.35;;;;;;;12.67;100.00;101190.06;5036760;28;20025;-66
2023/08/29 06:39:59;;;;;;;11.57;10.38;;;;;;;12.72;100.00;101192.19;5035922;28;20028;-67
2023/08/29 06:42:26;;;;;;;11.68;9.85;;;;;;;12.73;100.00;101193.91;5032887;28;20408;-66
2023/08/29 06:44:51;;;;;;;12.10;10.20;;;;;;;12.78;100.00;101196.03;5034441;28;20033;-66
2023/08/29 06:47:17;;;;;;;12.90;10.45;;;;;;;12.85;100.00;101191.63;5041434;28;20037;-66
2023/08/29 06:49:42;;;;;;;11.52;9.57;;;;;;;12.88;100.00;101193.94;5034787;28;20211;-67
2023/08/29 06:52:07;;;;;;;13.57;9.60;;;;;;;12.95;100.00;101184.22;5031869;28;20033;-66
2023/08/29 06:54:35;;;;;;;13.10;9.60;;;;;;;12.98;100.00;101190.03;5038508;28;20040;-66
2023/08/29 06:57:01;;;;;;;11.23;10.02;;;;;;;13.06;100.00;101199.00;5046088;28;20066;-67
2023/08/29 06:59:26;;;;;;;12.45;10.07;;;;;;;13.20;100.00;101192.91;5038787;28;20029;-67
2023/08/29 07:01:51;;;;;;;11.60;9.90;;;;;;;13.28;100.00;101196.34;5031169;28;20049;-66
2023/08/29 07:04:16;;;;;;;14.32;9.98;;;;;;;13.39;100.00;101192.44;5042492;28;21426;-66
2023/08/29 07:06:42;;;;;;;10.82;9.77;;;;;;;13.44;100.00;101190.03;5042160;28;20082;-66
2023/08/29 07:09:07;;;;;;;11.95;9.80;;;;;;;13.50;100.00;101197.31;5044129;28;20116;-66
2023/08/29 07:11:32;;;;;;;12.82;10.10;;;;;;;13.56;100.00;101193.91;5033132;28;20072;-67
2023/08/29 07:13:57;;;;;;;10.55;9.45;;;;;;;13.65;100.00;101194.69;5031713;28;20048;-67
2023/08/29 07:16:23;;;;;;;11.75;9.55;;;;;;;13.76;100.00;101194.22;5039150;28;20040;-67
2023/08/29 07:18:48;;;;;;;12.10;9.32;;;;;;;13.85;100.00;101190.44;5034067;28;20564;-67
2023/08/29 07:21:13;;;;;;;12.88;9.65;;;;;;;13.93;100.00;101189.56;5040169;28;20021;-67
2023/08/29 07:23:39;;;;;;;11.63;9.45;;;;;;;13.98;100.00;101191.66;5041733;28;20032;-67
2023/08/29 07:26:04;;;;;;;11.57;9.35;;;;;;;14.05;100.00;101195.25;5034012;28;20029;-67
2023/08/29 07:28:29;;;;;;;11.80;9.55;;;;;;;14.03;100.00;101195.44;5035821;28;20025;-67
2023/08/29 07:30:54;;;;;;;11.35;8.88;;;;;;;14.04;100.00;101185.59;5036104;28;20087;-67
2023/08/29 07:33:20;;;;;;;12.75;9.20;;;;;;;14.10;100.00;101196.34;5032361;28;20032;-67
2023/08/29 07:35:47;;;;;;;12.85;9.20;;;;;;;14.10;100.00;101199.03;5034651;28;20685;-67
2023/08/29 07:38:12;;;;;;;12.38;9.32;;;;;;;14.18;100.00;101200.78;5035407;28;20034;-66
2023/08/29 07:40:37;;;;;;;13.10;9.88;;;;;;;14.21;100.00;101195.91;5040099;28;20039;-67
2023/08/29 07:43:04;;;;;;;10.63;8.65;;;;;;;14.25;100.00;101202.53;5027428;28;20021;-67
2023/08/29 07:45:30;;;;;;;11.27;9.40;;;;;;;14.25;100.00;101201.69;5034281;28;20015;-67
2023/08/29 07:47:55;;;;;;;11.95;9.35;;;;;;;14.31;100.00;101208.97;5044475;28;20021;-67
2023/08/29 07:50:21;;;;;;;11.50;9.27;;;;;;;14.34;100.00;101207.75;5039984;28;20064;-67
2023/08/29 07:52:46;;;;;;;12.48;9.00;;;;;;;14.38;100.00;101206.38;5045627;28;20025;-67
2023/08/29 07:55:11;;;;;;;16.55;9.45;;;;;;;14.45;100.00;101205.47;5042284;28;20086;-67
2023/08/29 07:57:37;;;;;;;13.00;9.60;;;;;;;14.50;100.00;101208.44;5033439;28;20819;-67
2023/08/29 08:00:03;;;;;;;13.27;8.43;;;;;;;14.50;100.00;101208.44;5041164;28;20042;-67
2023/08/29 08:02:28;;;;;;;11.52;8.18;;;;;;;14.50;100.00;101203.09;5043719;28;20025;-67
2023/08/29 08:04:53;;;;;;;13.38;8.57;;;;;;;14.54;100.00;101207.03;5041648;28;20540;-67
2023/08/29 08:07:19;;;;;;;12.63;8.20;;;;;;;14.55;100.00;101206.03;5041081;28;20028;-68
2023/08/29 08:09:44;;;;;;;10.80;7.63;;;;;;;14.65;100.00;101207.56;5039392;28;20092;-68
2023/08/29 08:12:09;;;;;;;9.30;7.40;;;;;;;14.70;100.00;101205.97;5041235;28;20052;-67
2023/08/29 08:14:34;;;;;;;11.73;8.07;;;;;;;14.78;100.00;101211.22;5044942;28;20029;-67
2023/08/29 08:17:00;;;;;;;11.30;7.50;;;;;;;14.81;100.00;101204.66;5039345;28;20025;-67
2023/08/29 08:19:26;;;;;;;10.93;7.50;;;;;;;14.85;100.00;101205.94;5035937;28;20127;-68
2023/08/29 08:21:51;;;;;;;11.15;7.68;;;;;;;14.91;100.00;101201.69;5043637;28;20025;-67
2023/08/29 08:24:16;;;;;;;9.25;7.38;;;;;;;14.95;100.00;101201.09;5044648;28;20035;-67
2023/08/29 08:26:42;;;;;;;11.07;7.45;;;;;;;15.06;100.00;101199.78;5036532;28;20029;-67
2023/08/29 08:29:07;;;;;;;8.45;6.38;;;;;;;15.12;100.00;101210.53;5036937;28;20112;-67
2023/08/29 08:31:32;;;;;;;8.38;6.78;;;;;;;15.18;100.00;101201.75;5041670;28;20041;-68
2023/08/29 08:33:58;;;;;;;8.60;6.30;;;;;;;15.27;100.00;101199.75;5044968;28;20393;-67
2023/08/29 08:36:23;;;;;;;8.85;6.40;;;;;;;15.37;100.00;101199.44;5038934;28;20053;-67
2023/08/29 08:38:49;;;;;;;8.73;6.53;;;;;;;15.43;100.00;101201.34;5049665;28;20013;-67
2023/08/29 08:41:17;;;;;;;9.60;6.05;;;;;;;15.47;100.00;101208.78;5044501;28;20020;-67
2023/08/29 08:43:42;;;;;;;9.05;5.78;;;;;;;15.58;100.00;101204.78;5041637;28;20033;-67
2023/08/29 08:46:08;;;;;;;9.13;5.85;;;;;;;15.63;100.00;101213.06;5044004;28;20382;-67
2023/08/29 08:48:34;;;;;;;7.75;5.72;;;;;;;15.68;100.00;101205.28;5033605;28;20021;-67
2023/08/29 08:51:00;;;;;;;9.48;6.03;;;;;;;15.82;100.00;101205.38;5036514;28;20025;-67
2023/08/29 08:53:27;;;;;;;5.97;4.90;;;;;;;15.84;100.00;101204.13;5045130;28;20025;-67
2023/08/29 08:55:53;;;;;;;6.43;5.18;;;;;;;15.96;100.00;101201.75;5038909;28;20028;-67
2023/08/29 08:58:19;;;;;;;9.20;5.40;;;;;;;16.11;100.00;101199.78;5033846;28;20025;-67
2023/08/29 09:00:45;;;;;;;5.95;4.80;;;;;;;16.22;100.00;101204.59;5044107;28;20185;-67
2023/08/29 09:03:12;;;;;;;5.13;4.25;;;;;;;16.26;100.00;101203.16;5051309;28;20021;-67
2023/08/29 09:05:37;;;;;;;6.65;4.55;;;;;;;16.31;100.00;101192.66;5039219;28;20027;-67
2023/08/29 09:08:02;;;;;;;7.25;4.80;;;;;;;16.35;100.00;101195.78;5034622;28;20029;-68
2023/08/29 09:10:33;;;;;;;7.13;4.65;;;;;;;16.48;100.00;101203.03;5046304;28;20052;-68
2023/08/29 09:12:58;;;;;;;7.40;4.40;;;;;;;16.54;99.90;101196.88;5033595;28;20017;-67
2023/08/29 09:15:25;;;;;;;8.60;4.45;;;;;;;16.60;98.89;101201.44;5042710;28;20032;-67
2023/08/29 09:17:53;;;;;;;5.93;4.20;;;;;;;16.68;98.38;101207.47;5041679;28;20104;-67
2023/08/29 09:20:27;;;;;;;6.75;4.60;;;;;;;16.75;97.93;101212.84;5046931;28;20511;-67
2023/08/29 09:22:53;;;;;;;5.82;4.78;;;;;;;16.94;98.01;101214.75;5046487;28;20028;-67
2023/08/29 09:25:18;;;;;;;7.85;5.40;;;;;;;17.02;97.48;101206.50;5040379;28;20075;-68
2023/08/29 09:27:46;;;;;;;6.13;4.40;;;;;;;17.09;96.33;101219.97;5045795;28;20033;-67
2023/08/29 09:30:16;;;;;;;5.85;4.45;;;;;;;17.10;94.25;101218.94;5044080;28;20470;-67
2023/08/29 09:32:43;;;;;;;5.63;4.20;;;;;;;17.12;93.65;101214.19;5043200;28;20033;-67
2023/08/29 09:35:14;;;;;;;5.68;3.97;;;;;;;17.18;93.05;101215.22;5047976;28;20614;-67
2023/08/29 09:37:42;;;;;;;4.32;3.80;;;;;;;17.27;92.86;101219.34;5044269;28;20045;-68
2023/08/29 09:40:19;;;;;;;7.40;3.90;;;;;;;17.49;92.82;101214.63;5047450;28;20021;-67
2023/08/29 09:42:55;;;;;;;7.32;3.63;;;;;;;17.59;91.63;101213.16;5033759;28;20024;-68
2023/08/29 09:45:21;;;;;;;3.67;3.00;;;;;;;17.73;91.09;101207.81;5031842;28;20057;-67
2023/08/29 09:47:46;;;;;;;7.22;2.90;;;;;;;17.78;90.11;101205.34;5038697;28;20022;-67
2023/08/29 09:50:11;;;;;;;5.53;3.65;;;;;;;17.93;89.52;101203.25;5039795;28;20026;-67
2023/08/29 09:52:37;;;;;;;5.38;2.53;;;;;;;17.94;88.24;101197.66;5045761;28;20028;-68
2023/08/29 09:55:06;;;;;;;3.33;2.83;;;;;;;17.86;86.96;101197.88;5049401;28;20478;-67
2023/08/29 09:57:33;;;;;;;5.55;2.72;;;;;;;17.84;86.59;101191.06;5046611;28;20148;-67
2023/08/29 10:00:02;;;;;;;5.43;2.30;;;;;;;17.82;86.11;101190.44;5047728;28;20052;-67
2023/08/29 10:02:30;;;;;;;4.10;2.83;;;;;;;17.75;84.76;101190.47;5046236;28;20039;-67
2023/08/29 10:05:06;;;;;;;5.95;2.72;;;;;;;17.72;84.29;101195.44;5038557;28;20606;-67
2023/08/29 10:07:40;;;;;;;9.00;3.75;;;;;;;17.70;84.96;101192.94;5035234;28;20041;-67
2023/08/29 10:10:07;;;;;;;6.85;4.15;;;;;;;17.64;84.75;101189.22;5041473;28;20017;-67
2023/08/29 10:12:33;;;;;;;4.43;2.70;;;;;;;17.61;84.29;101186.09;5042160;28;20025;-67
2023/08/29 10:15:00;;;;;;;5.88;3.00;;;;;;;17.63;84.90;101192.09;5049354;28;20062;-67
2023/08/29 10:17:26;;;;;;;5.35;2.65;;;;;;;17.63;84.44;101181.34;5038475;28;20037;-67
2023/08/29 10:19:52;;;;;;;3.25;2.47;;;;;;;17.67;84.54;101184.47;5044881;28;20017;-67
2023/08/29 10:22:18;;;;;;;3.65;2.20;;;;;;;17.81;83.82;101178.03;5036189;28;20033;-67
2023/08/29 10:24:45;;;;;;;6.43;3.42;;;;;;;17.95;84.46;101177.81;5045590;28;20454;-67
2023/08/29 10:27:10;;;;;;;6.72;3.00;;;;;;;18.05;84.09;101179.22;5040096;28;20029;-67
2023/08/29 10:29:37;;;;;;;4.57;3.20;;;;;;;18.20;84.08;101182.47;5040660;28;20103;-67
2023/08/29 10:32:04;;;;;;;3.42;2.33;;;;;;;18.22;83.18;101183.94;5040946;28;20025;-67
2023/08/29 10:34:30;;;;;;;2.55;1.83;;;;;;;18.41;81.08;101173.31;5039836;28;20055;-67
2023/08/29 10:36:56;;;;;;;6.43;2.60;;;;;;;18.55;80.91;101170.34;5035569;28;20048;-67
2023/08/29 10:39:24;;;;;;;4.88;2.70;;;;;;;18.53;80.47;101171.59;5037260;28;20071;-67
2023/08/29 10:41:53;;;;;;;3.88;2.42;;;;;;;18.48;79.22;101171.41;5040321;28;20033;-67
2023/08/29 10:44:40;;;;;;;3.95;2.60;;;;;;;18.51;78.14;101176.38;5042929;28;20086;-67
2023/08/29 10:47:30;;;;;;;3.85;3.00;;;;;;;18.64;78.61;101184.41;5039596;28;20029;-67
2023/08/29 10:50:02;;;;;;;4.85;3.65;;;;;;;18.53;78.59;101172.44;5039540;28;20024;-67
2023/08/29 10:52:36;;;;;;;4.88;3.20;;;;;;;18.60;78.52;101172.38;5038421;28;20033;-67
2023/08/29 10:55:17;;;;;;;5.13;3.13;;;;;;;18.44;77.75;101171.00;5039693;28;20074;-67
2023/08/29 10:57:42;;;;;;;5.35;3.38;;;;;;;18.39;76.75;101159.25;5041869;28;20475;-67
2023/08/29 11:00:35;;;;;;;7.35;3.10;;;;;;;18.58;77.21;101159.16;5044036;28;20043;-67
2023/08/29 11:03:01;;;;;;;4.43;3.60;;;;;;;18.66;76.82;101158.09;5041257;28;20545;-67
2023/08/29 11:05:27;;;;;;;4.72;3.22;;;;;;;18.75;77.37;101162.19;5047673;28;20025;-67
2023/08/29 11:07:53;;;;;;;5.13;3.45;;;;;;;18.72;75.93;101167.16;5040511;28;20442;-67
2023/08/29 11:10:20;;;;;;;4.57;2.80;;;;;;;18.71;74.94;101160.97;5037298;28;20540;-67
2023/08/29 11:13:09;;;;;;;3.72;2.88;;;;;;;18.86;74.65;101158.00;5048501;28;20494;-67